CheckWX is a tool to help pilots better visualize weather data.  It is not intended as a substitute for an official pre-flight weather briefing.

12:24:14 UTC

KTLH METAR
Tallahassee International Airport
Tallahassee, Florida, USA
Current

21 mins ago

KTLH 181203Z 19003KT 10SM FEW008 BKN020 OVC030 21/21 A2999 RMK AO2 RAE03 P0000 T02110211
Observed
Feb-18 @ 12:03 UTC
Wind
  • 190° at 3 KTS
Visibility
10 SM
Flight Rules
MVFR
Cloud Levels
  • Few at 800' AGL
  • Broken at 2,000' AGL
  • Overcast at 3,000' AGL
Temperature
21°C / 70°F
Dewpoint
21°C / 70°F
Humidity
100%
Altimeter
29.99" Hg
Pressure
1015.62 hPa
Current Rain
0.01"
Previous

31 mins ago

KTLH 181153Z 00000KT 2SM RA BR BKN009 OVC020 21/21 A2999 RMK AO2 RAE12B39 SLP154 RA OCNL +RA P0013 60022 70022 T02110211 10217 20211 53011
Observed
Feb-18 @ 11:53 UTC
Visibility
2 SM
Flight Rules
IFR
Conditions
Rain, Mist
Cloud Levels
  • Broken at 900' AGL
  • Overcast at 2,000' AGL
Temperature
21°C / 70°F
Dewpoint
21°C / 70°F
Humidity
100%
Altimeter
29.99" Hg
Pressure
1015.4 hPa
Current Rain
0.13"
Previous

39 mins ago

KTLH 181145Z 24003KT 3SM RA BR BKN005 21/21 A2998 RMK AO2 RAE12B39 P0003 T02110211
Observed
Feb-18 @ 11:45 UTC
Wind
  • 240° at 3 KTS
Visibility
3 SM
Flight Rules
IFR
Conditions
Rain, Mist
Cloud Levels
  • Broken at 500' AGL
Temperature
21°C / 70°F
Dewpoint
21°C / 70°F
Humidity
100%
Altimeter
29.98" Hg
Pressure
1015.22 hPa
Current Rain
0.03"